Time;durP1;ratioP1;P1;durP2;ratioP2;P2;SDS_P1;SDS_P2;PMS_P1;PMS_P2;Temp;Humidity;BMP_temperature;BMP_pressure;BME280_temperature;BME280_humidity;BME280_pressure;Samples;Min_cycle;Max_cycle;Signal;HPM_P1;HPM_P2
2023/11/24 00:01:19;;;;;;;5.10;3.60;;;;;;;-128.00;-1.00;-1.00;105440;1254;1004197;-79
2023/11/24 00:03:46;;;;;;;7.00;4.20;;;;;;;-128.00;-1.00;-1.00;105424;1253;1004376;-79
2023/11/24 00:06:13;;;;;;;5.40;4.00;;;;;;;-128.00;-1.00;-1.00;105306;1258;1004734;-78
2023/11/24 00:08:40;;;;;;;4.90;3.10;;;;;;;-128.00;-1.00;-1.00;105405;1253;1004325;-79
2023/11/24 00:11:07;;;;;;;5.00;3.40;;;;;;;-128.00;-1.00;-1.00;105424;1253;1004218;-79
2023/11/24 00:13:34;;;;;;;4.20;2.50;;;;;;;-128.00;-1.00;-1.00;105370;1254;1003659;-78
2023/11/24 00:16:03;;;;;;;7.10;4.10;;;;;;;-128.00;-1.00;-1.00;105427;1253;1003906;-79
2023/11/24 00:18:30;;;;;;;6.70;3.80;;;;;;;-128.00;-1.00;-1.00;105419;1254;1057606;-78
2023/11/24 00:21:05;;;;;;;7.20;3.70;;;;;;;-128.00;-1.00;-1.00;105414;1254;1005147;-79
2023/11/24 00:23:38;;;;;;;5.50;4.00;;;;;;;-128.00;-1.00;-1.00;105443;1253;1045039;-79
2023/11/24 00:26:07;;;;;;;5.90;3.50;;;;;;;-128.00;-1.00;-1.00;105416;1254;1046352;-79
2023/11/24 00:28:36;;;;;;;5.90;3.00;;;;;;;-128.00;-1.00;-1.00;105398;1256;1062045;-79
2023/11/24 00:31:05;;;;;;;4.40;3.30;;;;;;;-128.00;-1.00;-1.00;105459;1254;1057810;-79
2023/11/24 00:33:32;;;;;;;5.30;3.60;;;;;;;-128.00;-1.00;-1.00;105376;1256;1059287;-79
2023/11/24 00:36:00;;;;;;;4.00;3.00;;;;;;;-128.00;-1.00;-1.00;105394;1253;1004088;-79
2023/11/24 00:38:27;;;;;;;4.90;2.80;;;;;;;-128.00;-1.00;-1.00;105412;1252;1048140;-79
2023/11/24 00:40:54;;;;;;;4.20;2.80;;;;;;;-128.00;-1.00;-1.00;105434;1253;1004259;-79
2023/11/24 00:43:22;;;;;;;4.40;2.90;;;;;;;-128.00;-1.00;-1.00;105405;1252;1004950;-79
2023/11/24 00:45:48;;;;;;;7.80;4.20;;;;;;;-128.00;-1.00;-1.00;105404;1254;1004337;-79
2023/11/24 00:48:15;;;;;;;5.70;3.20;;;;;;;-128.00;-1.00;-1.00;105409;1252;1003523;-79
2023/11/24 00:50:42;;;;;;;4.70;2.90;;;;;;;-128.00;-1.00;-1.00;105400;1253;1004229;-79
2023/11/24 00:53:08;;;;;;;6.00;3.60;;;;;;;-128.00;-1.00;-1.00;105388;1254;1004668;-79
2023/11/24 00:55:35;;;;;;;5.90;3.10;;;;;;;-128.00;-1.00;-1.00;105356;1257;1004259;-79
2023/11/24 00:58:01;;;;;;;4.30;3.30;;;;;;;-128.00;-1.00;-1.00;105374;1256;1004755;-79
2023/11/24 01:00:28;;;;;;;4.70;3.30;;;;;;;-128.00;-1.00;-1.00;105391;1254;1003575;-79
2023/11/24 01:02:55;;;;;;;6.60;2.80;;;;;;;-128.00;-1.00;-1.00;105415;1253;1004096;-79
2023/11/24 01:05:21;;;;;;;7.50;3.80;;;;;;;-128.00;-1.00;-1.00;105406;1253;1004067;-79
2023/11/24 01:07:48;;;;;;;7.80;3.20;;;;;;;-128.00;-1.00;-1.00;105385;1254;1004283;-80
2023/11/24 01:10:15;;;;;;;5.50;3.00;;;;;;;-128.00;-1.00;-1.00;105349;1254;1004307;-79
2023/11/24 01:12:42;;;;;;;5.80;2.70;;;;;;;-128.00;-1.00;-1.00;105398;1255;1004094;-79
2023/11/24 01:15:09;;;;;;;3.40;2.30;;;;;;;-128.00;-1.00;-1.00;105379;1254;1004900;-79
2023/11/24 01:17:36;;;;;;;5.50;4.40;;;;;;;-128.00;-1.00;-1.00;105412;1253;1004492;-79
2023/11/24 01:20:03;;;;;;;5.00;3.50;;;;;;;-128.00;-1.00;-1.00;105453;1254;1004117;-78
2023/11/24 01:22:30;;;;;;;3.70;2.50;;;;;;;-128.00;-1.00;-1.00;105427;1253;1004451;-79
2023/11/24 01:24:57;;;;;;;2.30;1.80;;;;;;;-128.00;-1.00;-1.00;105393;1254;1003903;-79
2023/11/24 01:27:23;;;;;;;4.90;2.80;;;;;;;-128.00;-1.00;-1.00;105409;1254;1004491;-79
2023/11/24 01:29:50;;;;;;;3.60;2.10;;;;;;;-128.00;-1.00;-1.00;105433;1252;1004667;-79
2023/11/24 01:32:16;;;;;;;3.20;2.00;;;;;;;-128.00;-1.00;-1.00;105443;1254;1004005;-79
2023/11/24 01:34:43;;;;;;;2.60;1.80;;;;;;;-128.00;-1.00;-1.00;105408;1253;1005495;-79
2023/11/24 01:37:09;;;;;;;3.30;1.60;;;;;;;-128.00;-1.00;-1.00;105401;1254;1004416;-79
2023/11/24 01:39:36;;;;;;;2.50;1.50;;;;;;;-128.00;-1.00;-1.00;105423;1253;1005404;-79
2023/11/24 01:42:04;;;;;;;2.40;1.30;;;;;;;-128.00;-1.00;-1.00;105434;1253;1005443;-79
2023/11/24 01:44:31;;;;;;;2.40;1.60;;;;;;;-128.00;-1.00;-1.00;105431;1253;1004653;-79
2023/11/24 01:46:57;;;;;;;3.50;1.80;;;;;;;-128.00;-1.00;-1.00;105341;1253;1005111;-79
2023/11/24 01:49:25;;;;;;;2.40;1.60;;;;;;;-128.00;-1.00;-1.00;105377;1254;1004073;-79
2023/11/24 01:51:53;;;;;;;3.50;1.50;;;;;;;-128.00;-1.00;-1.00;105428;1254;1003900;-79
2023/11/24 01:54:20;;;;;;;2.40;1.70;;;;;;;-128.00;-1.00;-1.00;105558;1254;1004832;-79
2023/11/24 01:56:47;;;;;;;2.90;2.10;;;;;;;-128.00;-1.00;-1.00;105395;1253;1004494;-79
2023/11/24 01:59:14;;;;;;;2.10;1.50;;;;;;;-128.00;-1.00;-1.00;105447;1253;1004413;-79
2023/11/24 02:01:40;;;;;;;3.10;1.60;;;;;;;-128.00;-1.00;-1.00;105324;1252;1004604;-80
2023/11/24 02:04:07;;;;;;;2.50;1.50;;;;;;;-128.00;-1.00;-1.00;105349;1253;1003677;-78
2023/11/24 02:06:33;;;;;;;3.30;1.90;;;;;;;-128.00;-1.00;-1.00;105341;1254;1004094;-79
2023/11/24 02:09:00;;;;;;;3.10;1.80;;;;;;;-128.00;-1.00;-1.00;105443;1254;1004518;-80
2023/11/24 02:11:27;;;;;;;1.90;1.30;;;;;;;-128.00;-1.00;-1.00;105413;1253;1004963;-79
2023/11/24 02:13:54;;;;;;;1.30;1.10;;;;;;;-128.00;-1.00;-1.00;105396;1253;1004057;-78
2023/11/24 02:16:21;;;;;;;2.20;1.60;;;;;;;-128.00;-1.00;-1.00;105419;1253;1004697;-79
2023/11/24 02:18:47;;;;;;;2.40;1.70;;;;;;;-128.00;-1.00;-1.00;105433;1256;1004302;-79
2023/11/24 02:21:14;;;;;;;2.30;1.50;;;;;;;-128.00;-1.00;-1.00;105418;1252;1004077;-79
2023/11/24 02:23:42;;;;;;;2.10;1.40;;;;;;;-128.00;-1.00;-1.00;105405;1254;1004900;-78
2023/11/24 02:26:09;;;;;;;1.70;1.20;;;;;;;-128.00;-1.00;-1.00;105396;1254;1004229;-78
2023/11/24 02:28:35;;;;;;;3.80;1.80;;;;;;;-128.00;-1.00;-1.00;105420;1252;1005281;-79
2023/11/24 02:31:03;;;;;;;1.60;1.00;;;;;;;-128.00;-1.00;-1.00;105429;1253;1004168;-79
2023/11/24 02:33:30;;;;;;;3.50;1.00;;;;;;;-128.00;-1.00;-1.00;105414;1254;1004650;-79
2023/11/24 02:35:57;;;;;;;1.10;0.70;;;;;;;-128.00;-1.00;-1.00;105421;1253;1003926;-78
2023/11/24 02:38:24;;;;;;;2.30;0.50;;;;;;;-128.00;-1.00;-1.00;105405;1254;1004960;-78
2023/11/24 02:40:50;;;;;;;0.50;0.50;;;;;;;-128.00;-1.00;-1.00;105421;1253;1003488;-78
2023/11/24 02:43:17;;;;;;;0.80;0.70;;;;;;;-128.00;-1.00;-1.00;105415;1253;1004516;-78
2023/11/24 02:45:43;;;;;;;0.80;0.60;;;;;;;-128.00;-1.00;-1.00;105464;1254;1004785;-78
2023/11/24 02:48:11;;;;;;;2.10;0.90;;;;;;;-128.00;-1.00;-1.00;105451;1253;1004234;-78
2023/11/24 02:50:38;;;;;;;3.20;1.00;;;;;;;-128.00;-1.00;-1.00;105393;1253;1003487;-79
2023/11/24 02:53:04;;;;;;;2.60;0.70;;;;;;;-128.00;-1.00;-1.00;105437;1253;1004288;-79
2023/11/24 02:55:31;;;;;;;3.00;0.80;;;;;;;-128.00;-1.00;-1.00;105422;1254;1004234;-79
2023/11/24 02:57:58;;;;;;;1.00;0.70;;;;;;;-128.00;-1.00;-1.00;105427;1253;1004235;-79
2023/11/24 03:00:24;;;;;;;1.30;0.80;;;;;;;-128.00;-1.00;-1.00;105378;1254;1004968;-78
2023/11/24 03:02:51;;;;;;;0.80;0.60;;;;;;;-128.00;-1.00;-1.00;105398;1254;1005020;-78
2023/11/24 03:05:17;;;;;;;1.70;0.60;;;;;;;-128.00;-1.00;-1.00;105416;1253;1004494;-78
2023/11/24 03:07:44;;;;;;;0.60;0.60;;;;;;;-128.00;-1.00;-1.00;105434;1253;1004758;-78
2023/11/24 03:10:11;;;;;;;1.10;0.60;;;;;;;-128.00;-1.00;-1.00;105370;1252;1003817;-78
2023/11/24 03:12:37;;;;;;;1.50;0.80;;;;;;;-128.00;-1.00;-1.00;105402;1254;1004535;-78
2023/11/24 03:15:05;;;;;;;1.20;0.70;;;;;;;-128.00;-1.00;-1.00;105392;1253;1003996;-80
2023/11/24 03:17:31;;;;;;;4.10;2.60;;;;;;;-128.00;-1.00;-1.00;105499;1254;1005419;-78
2023/11/24 03:19:58;;;;;;;0.90;0.70;;;;;;;-128.00;-1.00;-1.00;105377;1253;1004104;-78
2023/11/24 03:22:25;;;;;;;8.20;1.10;;;;;;;-128.00;-1.00;-1.00;105446;1254;1004887;-80
2023/11/24 03:24:51;;;;;;;1.30;0.90;;;;;;;-128.00;-1.00;-1.00;105388;1253;1003798;-78
2023/11/24 03:27:18;;;;;;;1.80;0.70;;;;;;;-128.00;-1.00;-1.00;105420;1254;1003807;-78
2023/11/24 03:29:44;;;;;;;2.30;0.50;;;;;;;-128.00;-1.00;-1.00;105410;1253;1003552;-78
2023/11/24 03:32:11;;;;;;;0.50;0.50;;;;;;;-128.00;-1.00;-1.00;105448;1253;1004853;-79
2023/11/24 03:34:38;;;;;;;0.40;0.40;;;;;;;-128.00;-1.00;-1.00;105394;1252;1003473;-78
2023/11/24 03:37:04;;;;;;;2.10;0.40;;;;;;;-128.00;-1.00;-1.00;105371;1253;1003744;-78
2023/11/24 03:39:31;;;;;;;1.00;0.60;;;;;;;-128.00;-1.00;-1.00;105378;1253;1004792;-78
2023/11/24 03:41:57;;;;;;;1.50;0.60;;;;;;;-128.00;-1.00;-1.00;105412;1253;1004379;-78
2023/11/24 03:44:24;;;;;;;5.20;1.70;;;;;;;-128.00;-1.00;-1.00;105390;1253;1004454;-78
2023/11/24 03:46:50;;;;;;;2.80;1.00;;;;;;;-128.00;-1.00;-1.00;105405;1256;1004706;-78
2023/11/24 03:49:17;;;;;;;2.30;1.30;;;;;;;-128.00;-1.00;-1.00;105430;1252;1004573;-78
2023/11/24 03:51:43;;;;;;;4.20;1.00;;;;;;;-128.00;-1.00;-1.00;105424;1254;1004463;-78
2023/11/24 03:54:10;;;;;;;0.70;0.60;;;;;;;-128.00;-1.00;-1.00;105392;1253;1003903;-78
2023/11/24 03:56:37;;;;;;;0.80;0.50;;;;;;;-128.00;-1.00;-1.00;105422;1253;1004474;-78
2023/11/24 03:59:04;;;;;;;8.60;4.70;;;;;;;-128.00;-1.00;-1.00;105399;1253;1005505;-78
2023/11/24 04:01:31;;;;;;;20.90;8.20;;;;;;;-128.00;-1.00;-1.00;105398;1252;1004524;-78
2023/11/24 04:03:58;;;;;;;6.90;1.80;;;;;;;-128.00;-1.00;-1.00;105388;1253;1003988;-78
2023/11/24 04:06:25;;;;;;;2.70;1.30;;;;;;;-128.00;-1.00;-1.00;105409;1253;1003585;-78
2023/11/24 04:08:52;;;;;;;7.30;4.70;;;;;;;-128.00;-1.00;-1.00;105392;1254;1003942;-78
2023/11/24 04:11:19;;;;;;;6.20;3.40;;;;;;;-128.00;-1.00;-1.00;105437;1253;1003503;-78
2023/11/24 04:13:45;;;;;;;3.10;2.00;;;;;;;-128.00;-1.00;-1.00;105358;1252;1004889;-78
2023/11/24 04:16:14;;;;;;;2.50;1.70;;;;;;;-128.00;-1.00;-1.00;105445;1253;1004337;-78
2023/11/24 04:18:41;;;;;;;4.90;1.90;;;;;;;-128.00;-1.00;-1.00;105418;1253;1046739;-78
2023/11/24 04:21:07;;;;;;;3.80;1.80;;;;;;;-128.00;-1.00;-1.00;105424;1252;1004719;-78
2023/11/24 04:23:34;;;;;;;1.60;1.30;;;;;;;-128.00;-1.00;-1.00;105407;1253;1004012;-78
2023/11/24 04:26:01;;;;;;;2.80;2.20;;;;;;;-128.00;-1.00;-1.00;105353;1253;1005493;-78
2023/11/24 04:28:27;;;;;;;1.80;1.00;;;;;;;-128.00;-1.00;-1.00;105408;1254;1004911;-78
2023/11/24 04:30:54;;;;;;;3.30;2.30;;;;;;;-128.00;-1.00;-1.00;105409;1253;1004396;-78
2023/11/24 04:33:20;;;;;;;6.50;3.80;;;;;;;-128.00;-1.00;-1.00;105398;1253;1004794;-79
2023/11/24 04:35:47;;;;;;;19.20;5.80;;;;;;;-128.00;-1.00;-1.00;105394;1252;1003607;-78
2023/11/24 04:38:14;;;;;;;18.80;6.90;;;;;;;-128.00;-1.00;-1.00;105413;1252;1003871;-79
2023/11/24 04:40:41;;;;;;;9.90;4.20;;;;;;;-128.00;-1.00;-1.00;105385;1252;1004343;-79
2023/11/24 04:43:08;;;;;;;6.60;3.20;;;;;;;-128.00;-1.00;-1.00;105396;1253;1004363;-79
2023/11/24 04:45:35;;;;;;;2.20;1.50;;;;;;;-128.00;-1.00;-1.00;105431;1253;1004325;-79
2023/11/24 04:48:02;;;;;;;4.30;2.20;;;;;;;-128.00;-1.00;-1.00;105419;1253;1004321;-79
2023/11/24 04:50:28;;;;;;;6.90;1.60;;;;;;;-128.00;-1.00;-1.00;105388;1253;1003871;-79
2023/11/24 04:52:55;;;;;;;2.40;1.50;;;;;;;-128.00;-1.00;-1.00;105425;1253;1004427;-79
2023/11/24 04:55:21;;;;;;;3.20;2.50;;;;;;;-128.00;-1.00;-1.00;105408;1254;1005090;-79
2023/11/24 04:57:50;;;;;;;2.90;1.90;;;;;;;-128.00;-1.00;-1.00;105425;1252;1004113;-79
2023/11/24 05:00:17;;;;;;;3.60;2.50;;;;;;;-128.00;-1.00;-1.00;105387;1252;1004840;-79
2023/11/24 05:02:44;;;;;;;3.60;2.10;;;;;;;-128.00;-1.00;-1.00;105380;1253;1005127;-79
2023/11/24 05:05:11;;;;;;;6.40;1.20;;;;;;;-128.00;-1.00;-1.00;105351;1252;1005334;-79
2023/11/24 05:07:37;;;;;;;3.30;0.90;;;;;;;-128.00;-1.00;-1.00;105471;1253;1004119;-79
2023/11/24 05:10:05;;;;;;;2.70;2.20;;;;;;;-128.00;-1.00;-1.00;105400;1253;1004829;-79
2023/11/24 05:12:34;;;;;;;3.10;1.70;;;;;;;-128.00;-1.00;-1.00;105427;1252;1003823;-79
2023/11/24 05:15:07;;;;;;;1.90;1.40;;;;;;;-128.00;-1.00;-1.00;105360;1253;1059748;-79
2023/11/24 05:17:35;;;;;;;5.50;1.60;;;;;;;-128.00;-1.00;-1.00;105401;1252;1047518;-79
2023/11/24 05:20:03;;;;;;;2.80;1.40;;;;;;;-128.00;-1.00;-1.00;105413;1253;1004298;-79
2023/11/24 05:22:29;;;;;;;4.50;3.40;;;;;;;-128.00;-1.00;-1.00;105398;1252;1003577;-79
2023/11/24 05:24:57;;;;;;;3.60;2.40;;;;;;;-128.00;-1.00;-1.00;105413;1253;1003911;-79
2023/11/24 05:27:24;;;;;;;6.20;2.90;;;;;;;-128.00;-1.00;-1.00;105409;1252;1004519;-79
2023/11/24 05:29:50;;;;;;;5.40;2.30;;;;;;;-128.00;-1.00;-1.00;105279;1252;1004358;-79
2023/11/24 05:32:17;;;;;;;6.60;3.60;;;;;;;-128.00;-1.00;-1.00;105426;1252;1004302;-79
2023/11/24 05:34:44;;;;;;;2.40;1.80;;;;;;;-128.00;-1.00;-1.00;105384;1252;1004952;-78
2023/11/24 05:37:10;;;;;;;6.00;4.70;;;;;;;-128.00;-1.00;-1.00;105425;1252;1004634;-79
2023/11/24 05:39:37;;;;;;;3.10;2.30;;;;;;;-128.00;-1.00;-1.00;105387;1253;1004835;-79
2023/11/24 05:42:04;;;;;;;8.10;4.50;;;;;;;-128.00;-1.00;-1.00;105401;1253;1004123;-79
2023/11/24 05:44:31;;;;;;;6.30;2.90;;;;;;;-128.00;-1.00;-1.00;105368;1252;1004498;-80
2023/11/24 05:46:58;;;;;;;7.30;3.00;;;;;;;-128.00;-1.00;-1.00;105430;1252;1004045;-79
2023/11/24 05:49:24;;;;;;;6.30;2.10;;;;;;;-128.00;-1.00;-1.00;105390;1254;1004723;-78
2023/11/24 05:51:52;;;;;;;4.50;1.40;;;;;;;-128.00;-1.00;-1.00;105405;1252;1004952;-78
2023/11/24 05:54:18;;;;;;;4.90;2.20;;;;;;;-128.00;-1.00;-1.00;105348;1253;1004002;-78
2023/11/24 05:56:45;;;;;;;11.70;5.30;;;;;;;-128.00;-1.00;-1.00;105415;1253;1004545;-78
2023/11/24 05:59:11;;;;;;;13.50;6.70;;;;;;;-128.00;-1.00;-1.00;105375;1252;1004486;-78
2023/11/24 06:01:38;;;;;;;10.30;4.60;;;;;;;-128.00;-1.00;-1.00;105425;1253;1003689;-78
2023/11/24 06:04:05;;;;;;;7.70;4.40;;;;;;;-128.00;-1.00;-1.00;105460;1252;1004012;-78
2023/11/24 06:06:31;;;;;;;5.80;3.00;;;;;;;-128.00;-1.00;-1.00;105352;1252;1004390;-78
2023/11/24 06:08:58;;;;;;;5.10;1.70;;;;;;;-128.00;-1.00;-1.00;105403;1252;1004336;-79
2023/11/24 06:11:24;;;;;;;6.80;1.90;;;;;;;-128.00;-1.00;-1.00;105437;1252;1004359;-78
2023/11/24 06:13:53;;;;;;;4.70;2.30;;;;;;;-128.00;-1.00;-1.00;105329;1253;1004092;-78
2023/11/24 06:16:20;;;;;;;8.80;2.70;;;;;;;-128.00;-1.00;-1.00;105377;1251;1060318;-78
2023/11/24 06:18:47;;;;;;;5.30;2.40;;;;;;;-128.00;-1.00;-1.00;105393;1251;1003887;-78
2023/11/24 06:21:14;;;;;;;5.90;2.20;;;;;;;-128.00;-1.00;-1.00;105436;1253;1003539;-78
2023/11/24 06:23:43;;;;;;;4.90;2.60;;;;;;;-128.00;-1.00;-1.00;105473;1251;1004227;-78
2023/11/24 06:26:09;;;;;;;8.70;5.50;;;;;;;-128.00;-1.00;-1.00;105414;1251;1058006;-79
2023/11/24 06:28:36;;;;;;;8.70;4.50;;;;;;;-128.00;-1.00;-1.00;105398;1251;1004323;-78
2023/11/24 06:31:03;;;;;;;5.50;3.20;;;;;;;-128.00;-1.00;-1.00;105418;1251;1003779;-78
2023/11/24 06:33:29;;;;;;;6.50;3.00;;;;;;;-128.00;-1.00;-1.00;105341;1252;1004023;-78
2023/11/24 06:35:56;;;;;;;8.00;4.30;;;;;;;-128.00;-1.00;-1.00;105421;1253;1005005;-78
2023/11/24 06:38:23;;;;;;;9.40;5.90;;;;;;;-128.00;-1.00;-1.00;105397;1252;1004258;-78
2023/11/24 06:40:49;;;;;;;7.20;5.80;;;;;;;-128.00;-1.00;-1.00;105453;1251;1004193;-78
2023/11/24 06:43:17;;;;;;;5.60;4.40;;;;;;;-128.00;-1.00;-1.00;105397;1252;1003902;-78
2023/11/24 06:45:47;;;;;;;6.90;2.70;;;;;;;-128.00;-1.00;-1.00;105427;1251;1004385;-78
2023/11/24 06:48:13;;;;;;;9.00;3.40;;;;;;;-128.00;-1.00;-1.00;105385;1253;1061282;-78
2023/11/24 06:50:40;;;;;;;8.20;3.70;;;;;;;-128.00;-1.00;-1.00;105415;1252;1004503;-79
2023/11/24 06:53:07;;;;;;;8.20;5.00;;;;;;;-128.00;-1.00;-1.00;105467;1252;1004996;-79
2023/11/24 06:55:34;;;;;;;14.80;9.50;;;;;;;-128.00;-1.00;-1.00;105407;1252;1004346;-78
2023/11/24 06:58:01;;;;;;;14.70;8.60;;;;;;;-128.00;-1.00;-1.00;105435;1252;1004422;-79
2023/11/24 07:00:27;;;;;;;12.00;8.10;;;;;;;-128.00;-1.00;-1.00;105371;1252;1004887;-79
2023/11/24 07:02:54;;;;;;;7.70;4.90;;;;;;;-128.00;-1.00;-1.00;105442;1252;1004436;-79
2023/11/24 07:05:20;;;;;;;11.20;5.90;;;;;;;-128.00;-1.00;-1.00;105383;1253;1003888;-79
2023/11/24 07:07:47;;;;;;;19.00;10.10;;;;;;;-128.00;-1.00;-1.00;105416;1251;1004256;-78
2023/11/24 07:10:13;;;;;;;26.90;10.80;;;;;;;-128.00;-1.00;-1.00;105401;1252;1004258;-78
2023/11/24 07:12:43;;;;;;;17.00;10.20;;;;;;;-128.00;-1.00;-1.00;105386;1252;1003893;-79
2023/11/24 07:15:11;;;;;;;26.00;14.00;;;;;;;-128.00;-1.00;-1.00;105341;1251;1057014;-78
2023/11/24 07:17:38;;;;;;;12.10;5.70;;;;;;;-128.00;-1.00;-1.00;105376;1253;1004692;-79
2023/11/24 07:20:13;;;;;;;35.20;14.50;;;;;;;-128.00;-1.00;-1.00;105251;1253;1004165;-78
2023/11/24 07:22:40;;;;;;;10.70;5.10;;;;;;;-128.00;-1.00;-1.00;105515;1253;1046311;-79
2023/11/24 07:25:07;;;;;;;50.80;24.60;;;;;;;-128.00;-1.00;-1.00;105537;1252;1004537;-79
2023/11/24 07:27:33;;;;;;;17.20;7.80;;;;;;;-128.00;-1.00;-1.00;105392;1253;1004810;-79
2023/11/24 07:30:00;;;;;;;7.30;3.90;;;;;;;-128.00;-1.00;-1.00;105288;1253;1004503;-79
2023/11/24 07:32:28;;;;;;;14.40;8.20;;;;;;;-128.00;-1.00;-1.00;105363;1253;1004316;-79
2023/11/24 07:34:55;;;;;;;10.40;4.40;;;;;;;-128.00;-1.00;-1.00;105491;1252;1004043;-79
2023/11/24 07:37:21;;;;;;;9.70;3.10;;;;;;;-128.00;-1.00;-1.00;105430;1253;1004879;-79
2023/11/24 07:39:48;;;;;;;8.50;3.80;;;;;;;-128.00;-1.00;-1.00;105386;1252;1004692;-78
2023/11/24 07:42:15;;;;;;;8.10;2.40;;;;;;;-128.00;-1.00;-1.00;105315;1252;1003827;-79
2023/11/24 07:44:42;;;;;;;8.60;2.60;;;;;;;-128.00;-1.00;-1.00;105286;1252;1004390;-80
2023/11/24 07:47:10;;;;;;;11.80;4.70;;;;;;;-128.00;-1.00;-1.00;105379;1252;1003837;-79
2023/11/24 07:49:36;;;;;;;15.60;6.50;;;;;;;-128.00;-1.00;-1.00;105204;1253;1003863;-79
2023/11/24 07:52:04;;;;;;;4.50;2.30;;;;;;;-128.00;-1.00;-1.00;105143;1253;1003893;-78
2023/11/24 07:54:31;;;;;;;77.50;24.00;;;;;;;-128.00;-1.00;-1.00;105460;1253;1004208;-79
2023/11/24 07:56:58;;;;;;;20.10;8.90;;;;;;;-128.00;-1.00;-1.00;105474;1253;1003919;-80
2023/11/24 07:59:24;;;;;;;47.80;19.10;;;;;;;-128.00;-1.00;-1.00;105352;1253;1005134;-79
2023/11/24 08:01:51;;;;;;;49.90;16.20;;;;;;;-128.00;-1.00;-1.00;105446;1251;1003794;-79
2023/11/24 08:04:18;;;;;;;25.30;11.50;;;;;;;-128.00;-1.00;-1.00;105372;1253;1004749;-79
2023/11/24 08:06:45;;;;;;;27.70;7.70;;;;;;;-128.00;-1.00;-1.00;105407;1252;1004293;-79
2023/11/24 08:09:12;;;;;;;9.50;3.80;;;;;;;-128.00;-1.00;-1.00;105295;1253;1004016;-79
2023/11/24 08:11:39;;;;;;;86.30;32.60;;;;;;;-128.00;-1.00;-1.00;105304;1252;1003827;-79
2023/11/24 08:14:05;;;;;;;106.90;39.80;;;;;;;-128.00;-1.00;-1.00;105285;1252;1005780;-79
2023/11/24 08:16:32;;;;;;;145.80;51.40;;;;;;;-128.00;-1.00;-1.00;105372;1251;1004448;-79
2023/11/24 08:18:59;;;;;;;99.30;37.10;;;;;;;-128.00;-1.00;-1.00;105395;1251;1003804;-79
2023/11/24 08:21:25;;;;;;;99.00;31.60;;;;;;;-128.00;-1.00;-1.00;105353;1252;1003583;-79
2023/11/24 08:23:52;;;;;;;102.00;36.60;;;;;;;-128.00;-1.00;-1.00;105275;1252;1004949;-79
2023/11/24 08:26:18;;;;;;;45.50;15.40;;;;;;;-128.00;-1.00;-1.00;105288;1252;1004372;-78
2023/11/24 08:28:45;;;;;;;78.40;30.10;;;;;;;-128.00;-1.00;-1.00;105443;1252;1003818;-78
2023/11/24 08:31:19;;;;;;;45.40;19.60;;;;;;;-128.00;-1.00;-1.00;105380;1252;1004160;-79
2023/11/24 08:33:46;;;;;;;103.00;39.20;;;;;;;-128.00;-1.00;-1.00;105322;1254;1044992;-80
2023/11/24 08:36:12;;;;;;;24.20;9.50;;;;;;;-128.00;-1.00;-1.00;105396;1252;1004708;-79
2023/11/24 08:38:40;;;;;;;28.50;11.70;;;;;;;-128.00;-1.00;-1.00;105354;1253;1004235;-79
2023/11/24 08:41:14;;;;;;;38.50;16.20;;;;;;;-128.00;-1.00;-1.00;105313;1251;1004394;-79
2023/11/24 08:43:40;;;;;;;17.20;8.10;;;;;;;-128.00;-1.00;-1.00;105329;1252;1059166;-79
2023/11/24 08:46:08;;;;;;;21.80;8.20;;;;;;;-128.00;-1.00;-1.00;105311;1253;1004881;-78
2023/11/24 08:48:35;;;;;;;23.50;8.70;;;;;;;-128.00;-1.00;-1.00;105282;1252;1005579;-78
2023/11/24 08:51:03;;;;;;;25.40;11.10;;;;;;;-128.00;-1.00;-1.00;105299;1253;1004509;-79
2023/11/24 08:53:30;;;;;;;16.90;7.70;;;;;;;-128.00;-1.00;-1.00;105326;1253;1004493;-78
2023/11/24 08:55:57;;;;;;;16.60;8.50;;;;;;;-128.00;-1.00;-1.00;105294;1252;1003851;-79
2023/11/24 08:58:25;;;;;;;11.20;3.90;;;;;;;-128.00;-1.00;-1.00;105252;1253;1004865;-78
2023/11/24 09:00:55;;;;;;;14.90;3.20;;;;;;;-128.00;-1.00;-1.00;105379;1252;1048240;-78
2023/11/24 09:03:24;;;;;;;17.00;7.60;;;;;;;-128.00;-1.00;-1.00;105424;1252;1061342;-78
2023/11/24 09:05:52;;;;;;;;;;;;;;;-128.00;-1.00;-1.00;105393;1251;1057560;-78
2023/11/24 09:08:19;;;;;;;19.20;7.70;;;;;;;-128.00;-1.00;-1.00;105342;1253;1004786;-78
2023/11/24 09:10:46;;;;;;;18.30;8.10;;;;;;;-128.00;-1.00;-1.00;105320;1253;1004799;-78
2023/11/24 09:13:13;;;;;;;13.10;5.90;;;;;;;-128.00;-1.00;-1.00;105378;1252;1004653;-79
2023/11/24 09:15:42;;;;;;;14.00;6.20;;;;;;;-128.00;-1.00;-1.00;105335;1252;1004471;-78
2023/11/24 09:18:09;;;;;;;15.80;7.30;;;;;;;-128.00;-1.00;-1.00;105387;1252;1058793;-78
2023/11/24 09:20:37;;;;;;;12.70;4.50;;;;;;;-128.00;-1.00;-1.00;105395;1253;1005013;-79
2023/11/24 09:23:04;;;;;;;7.90;3.10;;;;;;;-128.00;-1.00;-1.00;105394;1251;1004178;-78
2023/11/24 09:25:32;;;;;;;7.00;3.20;;;;;;;-128.00;-1.00;-1.00;105327;1253;1003468;-79
2023/11/24 09:28:02;;;;;;;16.90;7.30;;;;;;;-128.00;-1.00;-1.00;105302;1253;1003822;-78
2023/11/24 09:30:28;;;;;;;9.00;4.90;;;;;;;-128.00;-1.00;-1.00;105392;1251;1058354;-79
2023/11/24 09:32:55;;;;;;;15.80;7.20;;;;;;;-128.00;-1.00;-1.00;105271;1252;1004855;-78
2023/11/24 09:35:23;;;;;;;14.90;6.50;;;;;;;-128.00;-1.00;-1.00;105350;1251;1004581;-78
2023/11/24 09:37:51;;;;;;;13.30;6.10;;;;;;;-128.00;-1.00;-1.00;105489;1251;1003397;-78
2023/11/24 09:40:22;;;;;;;;;;;;;;;-128.00;-1.00;-1.00;105334;1253;1061376;-78
2023/11/24 09:42:50;;;;;;;14.90;6.30;;;;;;;-128.00;-1.00;-1.00;105169;1251;1057590;-78
2023/11/24 09:45:19;;;;;;;10.40;5.90;;;;;;;-128.00;-1.00;-1.00;105356;1251;1004487;-78
2023/11/24 09:47:52;;;;;;;4.80;2.70;;;;;;;-128.00;-1.00;-1.00;105495;1251;1045492;-78
2023/11/24 09:50:26;;;;;;;9.00;5.00;;;;;;;-128.00;-1.00;-1.00;105389;1253;1048040;-79
2023/11/24 09:52:57;;;;;;;11.60;5.70;;;;;;;-128.00;-1.00;-1.00;105317;1251;1062080;-79
2023/11/24 09:55:24;;;;;;;7.30;4.40;;;;;;;-128.00;-1.00;-1.00;105426;1251;1059009;-79
2023/11/24 09:57:50;;;;;;;9.50;3.30;;;;;;;-128.00;-1.00;-1.00;105340;1253;1004266;-79
2023/11/24 10:00:19;;;;;;;10.90;5.00;;;;;;;-128.00;-1.00;-1.00;105258;1252;1004908;-78
2023/11/24 10:02:46;;;;;;;7.00;2.30;;;;;;;-128.00;-1.00;-1.00;105315;1252;1047433;-80
2023/11/24 10:05:20;;;;;;;10.80;3.70;;;;;;;-128.00;-1.00;-1.00;105345;1253;1004150;-78
2023/11/24 10:07:50;;;;;;;6.30;3.20;;;;;;;-128.00;-1.00;-1.00;105331;1254;1058240;-78
2023/11/24 10:10:25;;;;;;;7.60;3.90;;;;;;;-128.00;-1.00;-1.00;105319;1253;1060499;-79
2023/11/24 10:12:53;;;;;;;87.60;32.30;;;;;;;-128.00;-1.00;-1.00;105353;1251;1046264;-79
2023/11/24 10:15:20;;;;;;;60.90;22.60;;;;;;;-128.00;-1.00;-1.00;105414;1253;1005618;-79
2023/11/24 10:17:48;;;;;;;51.30;16.50;;;;;;;-128.00;-1.00;-1.00;105362;1252;1003954;-79
2023/11/24 10:20:18;;;;;;;37.10;14.40;;;;;;;-128.00;-1.00;-1.00;105324;1251;1005555;-80
2023/11/24 10:22:49;;;;;;;31.30;13.70;;;;;;;-128.00;-1.00;-1.00;105043;1253;1059325;-79
2023/11/24 10:25:20;;;;;;;5.40;2.10;;;;;;;-128.00;-1.00;-1.00;105260;1253;1044614;-78
2023/11/24 10:27:47;;;;;;;10.90;3.20;;;;;;;-128.00;-1.00;-1.00;105376;1252;1047508;-79
2023/11/24 10:30:14;;;;;;;12.10;4.80;;;;;;;-128.00;-1.00;-1.00;105337;1253;1004746;-78
2023/11/24 10:32:43;;;;;;;15.70;6.60;;;;;;;-128.00;-1.00;-1.00;105354;1252;1004678;-78
2023/11/24 10:35:12;;;;;;;9.10;4.20;;;;;;;-128.00;-1.00;-1.00;105341;1253;1059577;-78
2023/11/24 10:37:40;;;;;;;14.30;7.20;;;;;;;-128.00;-1.00;-1.00;105273;1252;1045233;-78
2023/11/24 10:40:11;;;;;;;13.50;4.40;;;;;;;-128.00;-1.00;-1.00;105350;1251;1004236;-79
2023/11/24 10:42:38;;;;;;;55.80;26.50;;;;;;;-128.00;-1.00;-1.00;105301;1253;1061707;-79
2023/11/24 10:45:06;;;;;;;24.30;8.40;;;;;;;-128.00;-1.00;-1.00;105387;1253;1004298;-78
2023/11/24 10:47:36;;;;;;;9.50;4.30;;;;;;;-128.00;-1.00;-1.00;105285;1252;1005668;-79
2023/11/24 10:50:08;;;;;;;24.30;12.50;;;;;;;-128.00;-1.00;-1.00;105366;1253;1045240;-79
2023/11/24 10:52:42;;;;;;;11.20;6.20;;;;;;;-128.00;-1.00;-1.00;105321;1253;1047419;-78
2023/11/24 10:55:13;;;;;;;33.40;14.60;;;;;;;-128.00;-1.00;-1.00;105415;1251;1061179;-78
2023/11/24 10:57:43;;;;;;;20.00;10.30;;;;;;;-128.00;-1.00;-1.00;105342;1253;1058435;-79
2023/11/24 11:00:14;;;;;;;10.80;5.00;;;;;;;-128.00;-1.00;-1.00;105359;1251;1059046;-78
2023/11/24 11:02:41;;;;;;;11.40;5.40;;;;;;;-128.00;-1.00;-1.00;105393;1253;1045129;-79
2023/11/24 11:05:36;;;;;;;13.50;7.70;;;;;;;-128.00;-1.00;-1.00;105285;1253;1004671;-78
2023/11/24 11:08:18;;;;;;;15.10;4.70;;;;;;;-128.00;-1.00;-1.00;104907;1253;1062150;-78
2023/11/24 11:10:55;;;;;;;15.10;5.00;;;;;;;-128.00;-1.00;-1.00;105342;1253;1059595;-78
2023/11/24 11:13:22;;;;;;;58.80;25.90;;;;;;;-128.00;-1.00;-1.00;105381;1253;1058821;-79
2023/11/24 11:15:50;;;;;;;48.20;23.00;;;;;;;-128.00;-1.00;-1.00;105320;1253;1003481;-78